sensor_id;sensor_type;location;lat;lon;timestamp;temperature;humidity
3736;DHT22;1883;48.202;16.310;2023-04-01T00:44:58;10.50;69.30
3736;DHT22;1883;48.202;16.310;2023-04-01T00:47:45;10.50;69.40
3736;DHT22;1883;48.202;16.310;2023-04-01T00:50:19;10.50;69.40
3736;DHT22;1883;48.202;16.310;2023-04-01T00:53:43;10.50;69.40
3736;DHT22;1883;48.202;16.310;2023-04-01T00:57:02;10.50;69.40
3736;DHT22;1883;48.202;16.310;2023-04-01T01:00:14;10.50;69.40
3736;DHT22;1883;48.202;16.310;2023-04-01T01:02:53;10.50;69.40
3736;DHT22;1883;48.202;16.310;2023-04-01T01:05:48;10.50;69.40
3736;DHT22;1883;48.202;16.310;2023-04-01T01:08:46;10.50;69.40
3736;DHT22;1883;48.202;16.310;2023-04-01T01:18:32;10.40;69.40
3736;DHT22;1883;48.202;16.310;2023-04-01T01:21:26;10.40;69.40
3736;DHT22;1883;48.202;16.310;2023-04-01T01:27:13;10.40;69.40
3736;DHT22;1883;48.202;16.310;2023-04-01T01:33:04;10.40;69.40
3736;DHT22;1883;48.202;16.310;2023-04-01T01:42:15;10.40;69.40
3736;DHT22;1883;48.202;16.310;2023-04-01T01:44:45;10.40;69.30
3736;DHT22;1883;48.202;16.310;2023-04-01T01:47:14;10.40;69.30
3736;DHT22;1883;48.202;16.310;2023-04-01T01:49:42;10.30;69.30
3736;DHT22;1883;48.202;16.310;2023-04-01T01:52:10;10.30;69.20
3736;DHT22;1883;48.202;16.310;2023-04-01T01:54:47;10.30;69.10
3736;DHT22;1883;48.202;16.310;2023-04-01T01:57:17;10.20;69.00
3736;DHT22;1883;48.202;16.310;2023-04-01T01:59:46;10.20;68.90
3736;DHT22;1883;48.202;16.310;2023-04-01T02:02:15;10.20;68.80
3736;DHT22;1883;48.202;16.310;2023-04-01T02:04:44;10.20;68.80
3736;DHT22;1883;48.202;16.310;2023-04-01T02:07:30;10.20;68.80
3736;DHT22;1883;48.202;16.310;2023-04-01T02:11:00;10.10;68.80
3736;DHT22;1883;48.202;16.310;2023-04-01T02:16:45;10.20;68.80
3736;DHT22;1883;48.202;16.310;2023-04-01T02:19:17;10.20;68.80
3736;DHT22;1883;48.202;16.310;2023-04-01T02:21:50;10.10;68.70
3736;DHT22;1883;48.202;16.310;2023-04-01T02:24:19;10.10;68.70
3736;DHT22;1883;48.202;16.310;2023-04-01T02:27:01;10.10;68.70
3736;DHT22;1883;48.202;16.310;2023-04-01T02:29:48;10.10;68.70
3736;DHT22;1883;48.202;16.310;2023-04-01T02:42:05;10.00;68.60
3736;DHT22;1883;48.202;16.310;2023-04-01T02:44:32;10.00;68.70
3736;DHT22;1883;48.202;16.310;2023-04-01T02:46:59;10.00;68.50
3736;DHT22;1883;48.202;16.310;2023-04-01T02:49:26;10.00;68.60
3736;DHT22;1883;48.202;16.310;2023-04-01T02:51:53;10.00;68.60
3736;DHT22;1883;48.202;16.310;2023-04-01T02:54:20;10.00;68.70
3736;DHT22;1883;48.202;16.310;2023-04-01T02:56:47;10.00;68.70
3736;DHT22;1883;48.202;16.310;2023-04-01T03:05:37;9.70;67.60
3736;DHT22;1883;48.202;16.310;2023-04-01T03:08:04;9.60;67.40
3736;DHT22;1883;48.202;16.310;2023-04-01T03:10:32;9.50;67.40
3736;DHT22;1883;48.202;16.310;2023-04-01T03:12:58;9.50;67.40
3736;DHT22;1883;48.202;16.310;2023-04-01T03:15:25;9.50;67.40
3736;DHT22;1883;48.202;16.310;2023-04-01T03:17:52;9.50;67.50
3736;DHT22;1883;48.202;16.310;2023-04-01T03:20:19;9.50;67.50
3736;DHT22;1883;48.202;16.310;2023-04-01T03:22:48;9.50;67.60
3736;DHT22;1883;48.202;16.310;2023-04-01T03:25:15;9.50;67.60
3736;DHT22;1883;48.202;16.310;2023-04-01T03:27:42;9.50;67.60
3736;DHT22;1883;48.202;16.310;2023-04-01T03:30:09;9.50;67.60
3736;DHT22;1883;48.202;16.310;2023-04-01T03:32:36;9.50;67.60
3736;DHT22;1883;48.202;16.310;2023-04-01T03:35:04;9.40;67.60
3736;DHT22;1883;48.202;16.310;2023-04-01T03:37:31;9.40;67.60
3736;DHT22;1883;48.202;16.310;2023-04-01T03:40:00;9.50;67.60
3736;DHT22;1883;48.202;16.310;2023-04-01T03:42:27;9.50;67.60
3736;DHT22;1883;48.202;16.310;2023-04-01T03:44:54;9.40;67.60
3736;DHT22;1883;48.202;16.310;2023-04-01T03:47:20;9.40;67.60
3736;DHT22;1883;48.202;16.310;2023-04-01T03:49:47;9.40;67.60
3736;DHT22;1883;48.202;16.310;2023-04-01T03:52:15;9.40;67.60
3736;DHT22;1883;48.202;16.310;2023-04-01T03:54:41;9.40;67.60
3736;DHT22;1883;48.202;16.310;2023-04-01T03:57:10;9.40;67.50
3736;DHT22;1883;48.202;16.310;2023-04-01T03:59:37;9.40;67.60
3736;DHT22;1883;48.202;16.310;2023-04-01T04:02:21;9.40;67.60
3736;DHT22;1883;48.202;16.310;2023-04-01T04:05:31;9.40;67.70
3736;DHT22;1883;48.202;16.310;2023-04-01T04:08:22;9.40;67.70
3736;DHT22;1883;48.202;16.310;2023-04-01T04:11:04;9.40;67.80
